Terminal Aerodrome Forecast
Issued by NWS

Home | Current Version | Previous Version | Text Only | Print | Product List | Glossary On
Versions: 1 2 3 4 5 6 7 8 9 10 11 12 13 14 15 16 17 18 19 20 21 22 23 24 25 26 27 28
000
FTUS41 KBTV 051732
TAFRUT
TAF
KRUT 051732Z 0518/0618 27006KT P6SM SCT040
     FM052300 16006KT P6SM SCT040
     FM060900 14005KT P6SM SCT029 BKN040
     FM061200 VRB04KT P6SM VCSH BKN022 BKN040
     FM061500 28005KT P6SM VCSH BKN040=

USA.gov is the U.S. government's official web portal to all federal, state and local government web resources and services.